In Rescue
 
Open Full Screen Window  High Contrast Mode
Wind Gusting 25 knots
19
March 01, 2024 3:29 PM CST
Weather Information
Wind Direction
  180 °
Wind Speed
  19 kt (22 mph)
Wind Gust
  25 kt (29 mph)
Altimeter
29.74 in
Visibility
10 SM
Temperature
15° C
59° F
Dewpoint
01° C
34° F
Humidity
39%
Sky Condition
Clear
VFR

METAR KANE 012129Z AUTO 18019G25KT 10SM CLR 15/01 A2974 RMK AO2

FAA Disclaimer: The data displayed is for advisory purposes only and is not to be used for flight planning or operations.